sensor_id;sensor_type;location;lat;lon;timestamp;temperature;humidity
22122;DHT22;11227;53.046;10.512;2022-10-31T00:01:49;17.50;73.60
22122;DHT22;11227;53.046;10.512;2022-10-31T00:05:51;17.50;73.50
22122;DHT22;11227;53.046;10.512;2022-10-31T00:09:53;17.50;73.70
22122;DHT22;11227;53.046;10.512;2022-10-31T00:13:54;17.50;73.40
22122;DHT22;11227;53.046;10.512;2022-10-31T00:17:58;17.50;73.30
22122;DHT22;11227;53.046;10.512;2022-10-31T00:22:00;17.50;73.20
22122;DHT22;11227;53.046;10.512;2022-10-31T00:26:03;17.50;72.90
22122;DHT22;11227;53.046;10.512;2022-10-31T00:30:05;17.50;72.70
22122;DHT22;11227;53.046;10.512;2022-10-31T00:34:07;17.50;72.60
22122;DHT22;11227;53.046;10.512;2022-10-31T00:38:09;17.50;72.70
22122;DHT22;11227;53.046;10.512;2022-10-31T00:42:10;17.50;72.50
22122;DHT22;11227;53.046;10.512;2022-10-31T00:46:12;17.50;72.60
22122;DHT22;11227;53.046;10.512;2022-10-31T00:50:14;17.50;72.50
22122;DHT22;11227;53.046;10.512;2022-10-31T00:54:16;17.50;72.40
22122;DHT22;11227;53.046;10.512;2022-10-31T00:58:17;17.50;72.30
22122;DHT22;11227;53.046;10.512;2022-10-31T01:02:19;17.50;72.50
22122;DHT22;11227;53.046;10.512;2022-10-31T01:06:21;17.50;72.20
22122;DHT22;11227;53.046;10.512;2022-10-31T01:10:23;17.50;72.20
22122;DHT22;11227;53.046;10.512;2022-10-31T01:14:24;17.50;72.30
22122;DHT22;11227;53.046;10.512;2022-10-31T01:18:27;17.50;72.40
22122;DHT22;11227;53.046;10.512;2022-10-31T01:22:29;17.50;72.50
22122;DHT22;11227;53.046;10.512;2022-10-31T01:26:32;17.50;72.40
22122;DHT22;11227;53.046;10.512;2022-10-31T01:30:34;17.50;72.30
22122;DHT22;11227;53.046;10.512;2022-10-31T01:34:36;17.50;72.50
22122;DHT22;11227;53.046;10.512;2022-10-31T01:38:37;17.50;72.50
22122;DHT22;11227;53.046;10.512;2022-10-31T01:42:40;17.50;72.50
22122;DHT22;11227;53.046;10.512;2022-10-31T01:46:45;17.50;72.50
22122;DHT22;11227;53.046;10.512;2022-10-31T01:50:49;17.50;72.50
22122;DHT22;11227;53.046;10.512;2022-10-31T01:55:03;17.50;73.10
22122;DHT22;11227;53.046;10.512;2022-10-31T01:59:08;17.50;72.90
22122;DHT22;11227;53.046;10.512;2022-10-31T02:03:12;17.50;73.20
22122;DHT22;11227;53.046;10.512;2022-10-31T02:07:18;17.50;73.30
22122;DHT22;11227;53.046;10.512;2022-10-31T02:11:22;17.50;73.10
22122;DHT22;11227;53.046;10.512;2022-10-31T02:15:24;17.50;73.10
22122;DHT22;11227;53.046;10.512;2022-10-31T02:19:50;17.50;73.00
22122;DHT22;11227;53.046;10.512;2022-10-31T02:28:31;17.50;72.90
22122;DHT22;11227;53.046;10.512;2022-10-31T02:33:25;17.50;72.20
22122;DHT22;11227;53.046;10.512;2022-10-31T02:37:47;17.50;71.30
22122;DHT22;11227;53.046;10.512;2022-10-31T02:46:34;17.50;69.40
22122;DHT22;11227;53.046;10.512;2022-10-31T02:50:41;17.50;68.20
22122;DHT22;11227;53.046;10.512;2022-10-31T02:54:47;17.50;67.40
22122;DHT22;11227;53.046;10.512;2022-10-31T02:58:52;17.50;66.90
22122;DHT22;11227;53.046;10.512;2022-10-31T03:03:14;17.50;66.40
22122;DHT22;11227;53.046;10.512;2022-10-31T03:12:10;17.50;66.10
22122;DHT22;11227;53.046;10.512;2022-10-31T03:16:18;17.50;65.00
22122;DHT22;11227;53.046;10.512;2022-10-31T03:20:24;17.50;64.70
22122;DHT22;11227;53.046;10.512;2022-10-31T03:24:31;17.50;64.70
22122;DHT22;11227;53.046;10.512;2022-10-31T03:28:53;17.50;64.90
22122;DHT22;11227;53.046;10.512;2022-10-31T03:32:57;17.50;64.90
22122;DHT22;11227;53.046;10.512;2022-10-31T03:37:03;17.50;65.00
22122;DHT22;11227;53.046;10.512;2022-10-31T03:41:07;17.50;65.20
22122;DHT22;11227;53.046;10.512;2022-10-31T03:45:18;17.50;65.30
22122;DHT22;11227;53.046;10.512;2022-10-31T03:49:22;17.50;65.60
22122;DHT22;11227;53.046;10.512;2022-10-31T03:53:30;17.50;65.50
22122;DHT22;11227;53.046;10.512;2022-10-31T04:01:50;17.50;65.90
22122;DHT22;11227;53.046;10.512;2022-10-31T04:05:55;17.50;66.10
22122;DHT22;11227;53.046;10.512;2022-10-31T04:10:00;17.50;66.30
22122;DHT22;11227;53.046;10.512;2022-10-31T04:14:04;17.50;66.60
22122;DHT22;11227;53.046;10.512;2022-10-31T04:18:07;17.50;66.50
22122;DHT22;11227;53.046;10.512;2022-10-31T04:22:09;17.50;66.50
22122;DHT22;11227;53.046;10.512;2022-10-31T04:26:12;17.40;66.60
22122;DHT22;11227;53.046;10.512;2022-10-31T04:30:13;17.50;66.70
22122;DHT22;11227;53.046;10.512;2022-10-31T04:34:15;17.50;67.00
22122;DHT22;11227;53.046;10.512;2022-10-31T04:38:17;17.50;66.90
22122;DHT22;11227;53.046;10.512;2022-10-31T04:42:18;17.50;67.00
22122;DHT22;11227;53.046;10.512;2022-10-31T04:50:23;17.50;66.60
22122;DHT22;11227;53.046;10.512;2022-10-31T04:54:24;17.50;65.80
22122;DHT22;11227;53.046;10.512;2022-10-31T04:58:27;17.50;65.90
22122;DHT22;11227;53.046;10.512;2022-10-31T05:02:28;17.50;66.90
22122;DHT22;11227;53.046;10.512;2022-10-31T05:06:30;17.50;67.60
22122;DHT22;11227;53.046;10.512;2022-10-31T05:10:32;17.50;68.50
22122;DHT22;11227;53.046;10.512;2022-10-31T05:14:33;17.50;68.90
22122;DHT22;11227;53.046;10.512;2022-10-31T05:18:35;17.50;69.60
22122;DHT22;11227;53.046;10.512;2022-10-31T05:22:37;17.50;70.10
22122;DHT22;11227;53.046;10.512;2022-10-31T05:26:38;17.50;70.80
22122;DHT22;11227;53.046;10.512;2022-10-31T05:30:40;17.50;71.50
22122;DHT22;11227;53.046;10.512;2022-10-31T05:34:42;17.50;72.20
22122;DHT22;11227;53.046;10.512;2022-10-31T05:38:43;17.50;72.50
22122;DHT22;11227;53.046;10.512;2022-10-31T05:42:45;17.50;72.90
22122;DHT22;11227;53.046;10.512;2022-10-31T05:46:47;17.50;73.10
22122;DHT22;11227;53.046;10.512;2022-10-31T05:50:49;17.50;73.20
22122;DHT22;11227;53.046;10.512;2022-10-31T05:54:51;17.60;73.20
22122;DHT22;11227;53.046;10.512;2022-10-31T05:58:52;17.60;73.20
22122;DHT22;11227;53.046;10.512;2022-10-31T06:03:01;17.50;72.80
22122;DHT22;11227;53.046;10.512;2022-10-31T06:07:03;17.60;72.70
22122;DHT22;11227;53.046;10.512;2022-10-31T06:11:05;17.60;72.60
22122;DHT22;11227;53.046;10.512;2022-10-31T06:15:08;17.60;72.40
22122;DHT22;11227;53.046;10.512;2022-10-31T06:19:10;17.60;72.60
22122;DHT22;11227;53.046;10.512;2022-10-31T06:23:11;17.60;72.40
22122;DHT22;11227;53.046;10.512;2022-10-31T06:27:13;17.60;72.70
22122;DHT22;11227;53.046;10.512;2022-10-31T06:31:15;17.60;72.90
22122;DHT22;11227;53.046;10.512;2022-10-31T06:35:17;17.60;72.90
22122;DHT22;11227;53.046;10.512;2022-10-31T06:39:18;17.60;72.90
22122;DHT22;11227;53.046;10.512;2022-10-31T06:43:21;17.60;73.10
22122;DHT22;11227;53.046;10.512;2022-10-31T06:47:23;17.60;73.10
22122;DHT22;11227;53.046;10.512;2022-10-31T06:51:25;17.50;73.10
22122;DHT22;11227;53.046;10.512;2022-10-31T06:55:27;17.60;73.20
22122;DHT22;11227;53.046;10.512;2022-10-31T06:59:29;17.60;73.50
22122;DHT22;11227;53.046;10.512;2022-10-31T07:03:30;17.60;73.40
22122;DHT22;11227;53.046;10.512;2022-10-31T07:07:32;17.60;73.60
22122;DHT22;11227;53.046;10.512;2022-10-31T07:11:34;17.60;73.50
22122;DHT22;11227;53.046;10.512;2022-10-31T07:15:37;17.50;73.60
22122;DHT22;11227;53.046;10.512;2022-10-31T07:19:39;17.60;73.70
22122;DHT22;11227;53.046;10.512;2022-10-31T07:23:40;17.60;73.90
22122;DHT22;11227;53.046;10.512;2022-10-31T07:27:43;17.60;74.10
22122;DHT22;11227;53.046;10.512;2022-10-31T07:31:46;17.60;74.50
22122;DHT22;11227;53.046;10.512;2022-10-31T07:35:47;17.60;75.20
22122;DHT22;11227;53.046;10.512;2022-10-31T07:39:49;17.60;75.30
22122;DHT22;11227;53.046;10.512;2022-10-31T07:43:51;17.60;76.00
22122;DHT22;11227;53.046;10.512;2022-10-31T07:47:57;17.60;76.20
22122;DHT22;11227;53.046;10.512;2022-10-31T07:51:59;17.60;76.50
22122;DHT22;11227;53.046;10.512;2022-10-31T07:56:01;17.60;76.80
22122;DHT22;11227;53.046;10.512;2022-10-31T08:00:08;17.60;76.50
22122;DHT22;11227;53.046;10.512;2022-10-31T08:04:10;17.60;76.70
22122;DHT22;11227;53.046;10.512;2022-10-31T08:08:12;17.60;76.40
22122;DHT22;11227;53.046;10.512;2022-10-31T08:12:14;17.60;75.70
22122;DHT22;11227;53.046;10.512;2022-10-31T08:16:16;17.60;75.40
22122;DHT22;11227;53.046;10.512;2022-10-31T08:20:18;17.60;75.10
22122;DHT22;11227;53.046;10.512;2022-10-31T08:24:22;17.60;75.20
22122;DHT22;11227;53.046;10.512;2022-10-31T08:28:24;17.60;75.60
22122;DHT22;11227;53.046;10.512;2022-10-31T08:32:26;17.60;75.50
22122;DHT22;11227;53.046;10.512;2022-10-31T08:36:28;17.60;76.00
22122;DHT22;11227;53.046;10.512;2022-10-31T08:40:31;17.60;76.40
22122;DHT22;11227;53.046;10.512;2022-10-31T08:44:33;17.60;76.90
22122;DHT22;11227;53.046;10.512;2022-10-31T08:48:35;17.60;76.10
22122;DHT22;11227;53.046;10.512;2022-10-31T08:52:36;17.60;76.40
22122;DHT22;11227;53.046;10.512;2022-10-31T08:56:58;17.60;76.80
22122;DHT22;11227;53.046;10.512;2022-10-31T09:01:00;17.60;77.10
22122;DHT22;11227;53.046;10.512;2022-10-31T09:05:03;17.60;77.30
22122;DHT22;11227;53.046;10.512;2022-10-31T09:09:04;17.60;78.10
22122;DHT22;11227;53.046;10.512;2022-10-31T09:13:14;17.60;78.50
22122;DHT22;11227;53.046;10.512;2022-10-31T09:17:16;17.60;77.40
22122;DHT22;11227;53.046;10.512;2022-10-31T09:21:18;17.60;77.40
22122;DHT22;11227;53.046;10.512;2022-10-31T09:25:19;17.60;78.40
22122;DHT22;11227;53.046;10.512;2022-10-31T09:29:21;17.60;79.50
22122;DHT22;11227;53.046;10.512;2022-10-31T09:33:23;17.60;80.40
22122;DHT22;11227;53.046;10.512;2022-10-31T09:37:24;17.60;81.50
22122;DHT22;11227;53.046;10.512;2022-10-31T09:41:44;17.50;82.30
22122;DHT22;11227;53.046;10.512;2022-10-31T09:46:10;17.60;83.00
22122;DHT22;11227;53.046;10.512;2022-10-31T09:50:27;17.60;83.80
22122;DHT22;11227;53.046;10.512;2022-10-31T09:54:51;17.60;84.10
22122;DHT22;11227;53.046;10.512;2022-10-31T09:58:56;17.60;84.40
22122;DHT22;11227;53.046;10.512;2022-10-31T10:03:11;17.60;84.70
22122;DHT22;11227;53.046;10.512;2022-10-31T10:07:59;17.60;85.20
22122;DHT22;11227;53.046;10.512;2022-10-31T10:16:35;17.60;83.60
22122;DHT22;11227;53.046;10.512;2022-10-31T10:20:50;17.60;83.20
22122;DHT22;11227;53.046;10.512;2022-10-31T10:25:12;17.60;83.40
22122;DHT22;11227;53.046;10.512;2022-10-31T10:42:11;17.60;85.80
22122;DHT22;11227;53.046;10.512;2022-10-31T10:47:07;17.50;86.40
22122;DHT22;11227;53.046;10.512;2022-10-31T10:52:00;17.50;86.80
22122;DHT22;11227;53.046;10.512;2022-10-31T11:00:56;17.60;87.10
22122;DHT22;11227;53.046;10.512;2022-10-31T11:05:00;17.50;87.10
22122;DHT22;11227;53.046;10.512;2022-10-31T11:09:09;17.50;87.30
22122;DHT22;11227;53.046;10.512;2022-10-31T11:17:29;17.50;88.50
22122;DHT22;11227;53.046;10.512;2022-10-31T11:21:32;17.50;89.00
22122;DHT22;11227;53.046;10.512;2022-10-31T11:25:36;17.50;90.70
22122;DHT22;11227;53.046;10.512;2022-10-31T11:29:37;17.50;89.90
22122;DHT22;11227;53.046;10.512;2022-10-31T11:33:44;17.50;90.00
22122;DHT22;11227;53.046;10.512;2022-10-31T11:37:48;17.50;90.10
22122;DHT22;11227;53.046;10.512;2022-10-31T11:41:52;17.50;89.80
22122;DHT22;11227;53.046;10.512;2022-10-31T11:45:56;17.50;89.80
22122;DHT22;11227;53.046;10.512;2022-10-31T11:50:02;17.50;89.90
22122;DHT22;11227;53.046;10.512;2022-10-31T11:54:04;17.50;90.10
22122;DHT22;11227;53.046;10.512;2022-10-31T11:58:24;17.50;90.10
22122;DHT22;11227;53.046;10.512;2022-10-31T12:02:27;17.50;90.10
22122;DHT22;11227;53.046;10.512;2022-10-31T12:06:32;17.50;90.20
22122;DHT22;11227;53.046;10.512;2022-10-31T12:10:47;17.50;90.20
22122;DHT22;11227;53.046;10.512;2022-10-31T12:19:42;17.50;90.50
22122;DHT22;11227;53.046;10.512;2022-10-31T12:33:01;17.50;90.90
22122;DHT22;11227;53.046;10.512;2022-10-31T12:37:02;17.50;91.00
22122;DHT22;11227;53.046;10.512;2022-10-31T12:58:00;17.50;91.50
22122;DHT22;11227;53.046;10.512;2022-10-31T13:06:29;17.40;91.70
22122;DHT22;11227;53.046;10.512;2022-10-31T13:10:46;17.50;91.80
22122;DHT22;11227;53.046;10.512;2022-10-31T13:14:52;17.50;91.70
22122;DHT22;11227;53.046;10.512;2022-10-31T13:19:48;17.50;91.70
22122;DHT22;11227;53.046;10.512;2022-10-31T13:23:33;17.50;91.60
22122;DHT22;11227;53.046;10.512;2022-10-31T13:27:59;17.40;91.50
22122;DHT22;11227;53.046;10.512;2022-10-31T13:32:06;17.50;91.50
22122;DHT22;11227;53.046;10.512;2022-10-31T13:40:35;17.40;91.30
22122;DHT22;11227;53.046;10.512;2022-10-31T13:44:38;17.50;90.50
22122;DHT22;11227;53.046;10.512;2022-10-31T13:48:40;17.40;90.30
22122;DHT22;11227;53.046;10.512;2022-10-31T13:52:43;17.50;90.30
22122;DHT22;11227;53.046;10.512;2022-10-31T13:56:49;17.40;90.50
22122;DHT22;11227;53.046;10.512;2022-10-31T14:05:25;17.40;91.20
22122;DHT22;11227;53.046;10.512;2022-10-31T14:09:31;17.40;91.50
22122;DHT22;11227;53.046;10.512;2022-10-31T14:13:36;17.50;91.60
22122;DHT22;11227;53.046;10.512;2022-10-31T14:21:58;17.40;92.00
22122;DHT22;11227;53.046;10.512;2022-10-31T14:30:28;17.50;92.30
22122;DHT22;11227;53.046;10.512;2022-10-31T14:34:35;17.50;92.60
22122;DHT22;11227;53.046;10.512;2022-10-31T14:43:22;17.40;92.90
22122;DHT22;11227;53.046;10.512;2022-10-31T14:52:12;17.40;93.20
22122;DHT22;11227;53.046;10.512;2022-10-31T14:56:29;17.40;93.30
22122;DHT22;11227;53.046;10.512;2022-10-31T15:00:32;17.50;93.20
22122;DHT22;11227;53.046;10.512;2022-10-31T15:04:35;17.40;93.10
22122;DHT22;11227;53.046;10.512;2022-10-31T15:08:44;17.40;93.10
22122;DHT22;11227;53.046;10.512;2022-10-31T15:12:46;17.40;93.00
22122;DHT22;11227;53.046;10.512;2022-10-31T15:16:48;17.40;93.20
22122;DHT22;11227;53.046;10.512;2022-10-31T15:20:52;17.40;93.40
22122;DHT22;11227;53.046;10.512;2022-10-31T15:24:54;17.40;93.60
22122;DHT22;11227;53.046;10.512;2022-10-31T15:29:02;17.50;94.10
22122;DHT22;11227;53.046;10.512;2022-10-31T15:33:19;17.40;94.00
22122;DHT22;11227;53.046;10.512;2022-10-31T15:37:24;17.40;94.00
22122;DHT22;11227;53.046;10.512;2022-10-31T15:45:31;17.50;94.00
22122;DHT22;11227;53.046;10.512;2022-10-31T15:49:36;17.50;94.30
22122;DHT22;11227;53.046;10.512;2022-10-31T15:53:47;17.50;94.60
22122;DHT22;11227;53.046;10.512;2022-10-31T15:57:58;17.50;94.90
22122;DHT22;11227;53.046;10.512;2022-10-31T16:02:02;17.40;95.30
22122;DHT22;11227;53.046;10.512;2022-10-31T16:06:05;17.50;95.30
22122;DHT22;11227;53.046;10.512;2022-10-31T16:10:23;17.50;95.40
22122;DHT22;11227;53.046;10.512;2022-10-31T16:14:28;17.50;95.50
22122;DHT22;11227;53.046;10.512;2022-10-31T16:18:35;17.50;95.70
22122;DHT22;11227;53.046;10.512;2022-10-31T16:22:39;17.50;95.80
22122;DHT22;11227;53.046;10.512;2022-10-31T16:26:41;17.50;95.80
22122;DHT22;11227;53.046;10.512;2022-10-31T16:30:47;17.50;95.80
22122;DHT22;11227;53.046;10.512;2022-10-31T16:39:10;17.50;95.70
22122;DHT22;11227;53.046;10.512;2022-10-31T16:43:14;17.50;95.50
22122;DHT22;11227;53.046;10.512;2022-10-31T16:47:17;17.50;95.30
22122;DHT22;11227;53.046;10.512;2022-10-31T16:51:19;17.50;94.90
22122;DHT22;11227;53.046;10.512;2022-10-31T16:55:21;17.60;94.70
22122;DHT22;11227;53.046;10.512;2022-10-31T16:59:22;17.50;94.40
22122;DHT22;11227;53.046;10.512;2022-10-31T17:03:24;17.50;94.10
22122;DHT22;11227;53.046;10.512;2022-10-31T17:07:25;17.50;93.70
22122;DHT22;11227;53.046;10.512;2022-10-31T17:11:27;17.50;93.30
22122;DHT22;11227;53.046;10.512;2022-10-31T17:15:35;17.60;93.10
22122;DHT22;11227;53.046;10.512;2022-10-31T17:19:38;17.50;92.80
22122;DHT22;11227;53.046;10.512;2022-10-31T17:23:41;17.60;92.40
22122;DHT22;11227;53.046;10.512;2022-10-31T17:27:44;17.60;92.20
22122;DHT22;11227;53.046;10.512;2022-10-31T17:31:48;17.60;92.10
22122;DHT22;11227;53.046;10.512;2022-10-31T17:35:49;17.60;91.80
22122;DHT22;11227;53.046;10.512;2022-10-31T17:39:52;17.50;91.60
22122;DHT22;11227;53.046;10.512;2022-10-31T17:43:55;17.60;91.60
22122;DHT22;11227;53.046;10.512;2022-10-31T17:47:57;17.60;91.50
22122;DHT22;11227;53.046;10.512;2022-10-31T17:51:58;17.60;91.70
22122;DHT22;11227;53.046;10.512;2022-10-31T17:56:07;17.60;91.50
22122;DHT22;11227;53.046;10.512;2022-10-31T18:00:15;17.50;89.60
22122;DHT22;11227;53.046;10.512;2022-10-31T18:04:16;17.50;88.20
22122;DHT22;11227;53.046;10.512;2022-10-31T18:08:18;17.50;88.10
22122;DHT22;11227;53.046;10.512;2022-10-31T18:12:20;17.50;88.50
22122;DHT22;11227;53.046;10.512;2022-10-31T18:16:22;17.40;89.10
22122;DHT22;11227;53.046;10.512;2022-10-31T18:20:24;17.40;90.00
22122;DHT22;11227;53.046;10.512;2022-10-31T18:24:25;17.40;90.00
22122;DHT22;11227;53.046;10.512;2022-10-31T18:28:29;17.40;90.40
22122;DHT22;11227;53.046;10.512;2022-10-31T18:32:30;17.40;90.40
22122;DHT22;11227;53.046;10.512;2022-10-31T18:36:32;17.40;90.40
22122;DHT22;11227;53.046;10.512;2022-10-31T18:40:34;17.40;90.20
22122;DHT22;11227;53.046;10.512;2022-10-31T18:44:36;17.40;89.90
22122;DHT22;11227;53.046;10.512;2022-10-31T18:48:40;17.30;89.30
22122;DHT22;11227;53.046;10.512;2022-10-31T18:52:42;17.30;88.70
22122;DHT22;11227;53.046;10.512;2022-10-31T18:56:44;17.40;88.20
22122;DHT22;11227;53.046;10.512;2022-10-31T19:00:46;17.40;87.00
22122;DHT22;11227;53.046;10.512;2022-10-31T19:04:48;17.30;86.00
22122;DHT22;11227;53.046;10.512;2022-10-31T19:08:54;17.30;85.30
22122;DHT22;11227;53.046;10.512;2022-10-31T19:12:56;17.30;84.00
22122;DHT22;11227;53.046;10.512;2022-10-31T19:16:58;17.30;82.80
22122;DHT22;11227;53.046;10.512;2022-10-31T19:21:07;17.30;81.20
22122;DHT22;11227;53.046;10.512;2022-10-31T19:25:09;17.30;80.10
22122;DHT22;11227;53.046;10.512;2022-10-31T19:29:11;17.30;78.40
22122;DHT22;11227;53.046;10.512;2022-10-31T19:33:13;17.30;76.90
22122;DHT22;11227;53.046;10.512;2022-10-31T19:37:14;17.30;75.50
22122;DHT22;11227;53.046;10.512;2022-10-31T19:41:25;17.30;73.80
22122;DHT22;11227;53.046;10.512;2022-10-31T19:45:27;17.30;71.80
22122;DHT22;11227;53.046;10.512;2022-10-31T19:49:28;17.30;69.70
22122;DHT22;11227;53.046;10.512;2022-10-31T19:53:31;17.30;67.90
22122;DHT22;11227;53.046;10.512;2022-10-31T19:57:33;17.30;65.80
22122;DHT22;11227;53.046;10.512;2022-10-31T20:01:56;17.30;64.30
22122;DHT22;11227;53.046;10.512;2022-10-31T20:06:01;17.30;62.20
22122;DHT22;11227;53.046;10.512;2022-10-31T20:10:04;17.30;60.60
22122;DHT22;11227;53.046;10.512;2022-10-31T20:14:07;17.30;59.40
22122;DHT22;11227;53.046;10.512;2022-10-31T20:18:09;17.30;57.90
22122;DHT22;11227;53.046;10.512;2022-10-31T20:22:10;17.30;56.50
22122;DHT22;11227;53.046;10.512;2022-10-31T20:26:17;17.30;55.40
22122;DHT22;11227;53.046;10.512;2022-10-31T20:30:19;17.30;54.40
22122;DHT22;11227;53.046;10.512;2022-10-31T20:34:21;17.30;53.30
22122;DHT22;11227;53.046;10.512;2022-10-31T20:38:22;17.30;51.80
22122;DHT22;11227;53.046;10.512;2022-10-31T20:42:24;17.30;50.60
22122;DHT22;11227;53.046;10.512;2022-10-31T20:46:26;17.30;49.10
22122;DHT22;11227;53.046;10.512;2022-10-31T20:50:28;17.30;47.50
22122;DHT22;11227;53.046;10.512;2022-10-31T20:54:29;17.30;46.50
22122;DHT22;11227;53.046;10.512;2022-10-31T20:58:31;17.30;45.60
22122;DHT22;11227;53.046;10.512;2022-10-31T21:02:33;17.30;44.80
22122;DHT22;11227;53.046;10.512;2022-10-31T21:06:35;17.30;44.30
22122;DHT22;11227;53.046;10.512;2022-10-31T21:10:38;17.30;43.50
22122;DHT22;11227;53.046;10.512;2022-10-31T21:14:40;17.30;43.80
22122;DHT22;11227;53.046;10.512;2022-10-31T21:18:43;17.30;44.00
22122;DHT22;11227;53.046;10.512;2022-10-31T21:22:45;17.30;40.40
22122;DHT22;11227;53.046;10.512;2022-10-31T21:26:49;17.30;38.30
22122;DHT22;11227;53.046;10.512;2022-10-31T21:30:51;17.30;36.90
22122;DHT22;11227;53.046;10.512;2022-10-31T21:34:52;17.30;35.90
22122;DHT22;11227;53.046;10.512;2022-10-31T21:38:55;17.30;35.30
22122;DHT22;11227;53.046;10.512;2022-10-31T21:42:57;17.30;34.80
22122;DHT22;11227;53.046;10.512;2022-10-31T21:51:15;17.20;34.70
22122;DHT22;11227;53.046;10.512;2022-10-31T21:55:17;17.20;35.10
22122;DHT22;11227;53.046;10.512;2022-10-31T21:59:18;17.20;34.80
22122;DHT22;11227;53.046;10.512;2022-10-31T22:03:20;17.20;34.70
22122;DHT22;11227;53.046;10.512;2022-10-31T22:07:22;17.20;34.30
22122;DHT22;11227;53.046;10.512;2022-10-31T22:11:23;17.20;33.80
22122;DHT22;11227;53.046;10.512;2022-10-31T22:15:25;17.20;33.20
22122;DHT22;11227;53.046;10.512;2022-10-31T22:19:27;17.20;32.60
22122;DHT22;11227;53.046;10.512;2022-10-31T22:23:29;17.20;32.10
22122;DHT22;11227;53.046;10.512;2022-10-31T22:27:31;17.20;31.80
22122;DHT22;11227;53.046;10.512;2022-10-31T22:31:36;17.20;31.60
22122;DHT22;11227;53.046;10.512;2022-10-31T22:35:37;17.20;31.00
22122;DHT22;11227;53.046;10.512;2022-10-31T22:39:39;17.20;30.40
22122;DHT22;11227;53.046;10.512;2022-10-31T22:43:41;17.20;30.40
22122;DHT22;11227;53.046;10.512;2022-10-31T22:47:42;17.20;30.10
22122;DHT22;11227;53.046;10.512;2022-10-31T22:51:44;17.20;30.20
22122;DHT22;11227;53.046;10.512;2022-10-31T22:55:49;17.20;30.00
22122;DHT22;11227;53.046;10.512;2022-10-31T22:59:50;17.20;29.80
22122;DHT22;11227;53.046;10.512;2022-10-31T23:03:52;17.20;30.30
22122;DHT22;11227;53.046;10.512;2022-10-31T23:07:53;17.20;30.30
22122;DHT22;11227;53.046;10.512;2022-10-31T23:11:55;17.20;31.30
22122;DHT22;11227;53.046;10.512;2022-10-31T23:16:17;17.20;30.20
22122;DHT22;11227;53.046;10.512;2022-10-31T23:20:18;17.20;31.90
22122;DHT22;11227;53.046;10.512;2022-10-31T23:28:25;17.20;30.40
22122;DHT22;11227;53.046;10.512;2022-10-31T23:32:36;17.20;30.70
22122;DHT22;11227;53.046;10.512;2022-10-31T23:36:37;17.20;31.00
22122;DHT22;11227;53.046;10.512;2022-10-31T23:40:39;17.20;31.40
22122;DHT22;11227;53.046;10.512;2022-10-31T23:44:41;17.20;31.70
22122;DHT22;11227;53.046;10.512;2022-10-31T23:48:43;17.10;31.60
22122;DHT22;11227;53.046;10.512;2022-10-31T23:52:48;17.20;31.90
22122;DHT22;11227;53.046;10.512;2022-10-31T23:56:50;17.20;32.60
